sensor_id;sensor_type;location;lat;lon;timestamp;temperature;humidity
21199;DHT22;10757;51.038;3.712;2023-01-23T00:00:31;4.10;99.90
21199;DHT22;10757;51.038;3.712;2023-01-23T00:02:58;4.00;99.90
21199;DHT22;10757;51.038;3.712;2023-01-23T00:05:24;3.90;99.90
21199;DHT22;10757;51.038;3.712;2023-01-23T00:07:49;3.90;99.90
21199;DHT22;10757;51.038;3.712;2023-01-23T00:10:15;4.00;99.90
21199;DHT22;10757;51.038;3.712;2023-01-23T00:12:42;4.10;99.90
21199;DHT22;10757;51.038;3.712;2023-01-23T00:15:09;4.00;99.90
21199;DHT22;10757;51.038;3.712;2023-01-23T00:17:35;3.90;99.90
21199;DHT22;10757;51.038;3.712;2023-01-23T00:20:01;3.90;99.90
21199;DHT22;10757;51.038;3.712;2023-01-23T00:22:27;4.00;99.90
21199;DHT22;10757;51.038;3.712;2023-01-23T00:24:52;4.10;99.90
21199;DHT22;10757;51.038;3.712;2023-01-23T00:27:18;4.10;99.90
21199;DHT22;10757;51.038;3.712;2023-01-23T00:29:46;4.10;99.90
21199;DHT22;10757;51.038;3.712;2023-01-23T00:32:12;4.10;99.90
21199;DHT22;10757;51.038;3.712;2023-01-23T00:34:38;4.10;99.90
21199;DHT22;10757;51.038;3.712;2023-01-23T00:37:04;4.00;99.90
21199;DHT22;10757;51.038;3.712;2023-01-23T00:39:30;3.90;99.90
21199;DHT22;10757;51.038;3.712;2023-01-23T00:41:56;3.90;99.90
21199;DHT22;10757;51.038;3.712;2023-01-23T00:44:22;4.20;99.90
21199;DHT22;10757;51.038;3.712;2023-01-23T00:46:48;4.20;99.90
21199;DHT22;10757;51.038;3.712;2023-01-23T00:49:14;4.20;99.90
21199;DHT22;10757;51.038;3.712;2023-01-23T00:51:44;4.00;99.90
21199;DHT22;10757;51.038;3.712;2023-01-23T00:54:15;4.00;99.90
21199;DHT22;10757;51.038;3.712;2023-01-23T00:56:41;4.40;99.90
21199;DHT22;10757;51.038;3.712;2023-01-23T00:59:08;4.30;99.90
21199;DHT22;10757;51.038;3.712;2023-01-23T01:01:34;4.10;99.90
21199;DHT22;10757;51.038;3.712;2023-01-23T01:04:00;4.00;99.90
21199;DHT22;10757;51.038;3.712;2023-01-23T01:06:26;4.00;99.90
21199;DHT22;10757;51.038;3.712;2023-01-23T01:08:54;4.00;99.90
21199;DHT22;10757;51.038;3.712;2023-01-23T01:11:48;3.90;99.90
21199;DHT22;10757;51.038;3.712;2023-01-23T01:14:14;3.90;99.90
21199;DHT22;10757;51.038;3.712;2023-01-23T01:16:40;3.90;99.90
21199;DHT22;10757;51.038;3.712;2023-01-23T01:19:10;3.70;99.90
21199;DHT22;10757;51.038;3.712;2023-01-23T01:21:36;3.90;99.90
21199;DHT22;10757;51.038;3.712;2023-01-23T01:24:04;4.00;99.90
21199;DHT22;10757;51.038;3.712;2023-01-23T01:26:30;3.90;99.90
21199;DHT22;10757;51.038;3.712;2023-01-23T01:28:56;4.00;99.90
21199;DHT22;10757;51.038;3.712;2023-01-23T01:31:21;3.80;99.90
21199;DHT22;10757;51.038;3.712;2023-01-23T01:33:47;3.80;99.90
21199;DHT22;10757;51.038;3.712;2023-01-23T01:36:16;3.70;99.90
21199;DHT22;10757;51.038;3.712;2023-01-23T01:38:42;3.70;99.90
21199;DHT22;10757;51.038;3.712;2023-01-23T01:41:08;3.90;99.90
21199;DHT22;10757;51.038;3.712;2023-01-23T01:43:38;4.10;99.90
21199;DHT22;10757;51.038;3.712;2023-01-23T01:53:54;4.00;99.90
21199;DHT22;10757;51.038;3.712;2023-01-23T01:56:20;3.80;99.90
21199;DHT22;10757;51.038;3.712;2023-01-23T01:58:48;3.80;99.90
21199;DHT22;10757;51.038;3.712;2023-01-23T02:01:17;3.60;99.90
21199;DHT22;10757;51.038;3.712;2023-01-23T02:03:44;3.60;99.90
21199;DHT22;10757;51.038;3.712;2023-01-23T02:06:10;3.60;99.90
21199;DHT22;10757;51.038;3.712;2023-01-23T02:11:22;3.60;99.90
21199;DHT22;10757;51.038;3.712;2023-01-23T02:13:48;3.50;99.90
21199;DHT22;10757;51.038;3.712;2023-01-23T02:16:18;3.40;99.90
21199;DHT22;10757;51.038;3.712;2023-01-23T02:18:48;3.30;99.90
21199;DHT22;10757;51.038;3.712;2023-01-23T02:21:16;3.50;99.90
21199;DHT22;10757;51.038;3.712;2023-01-23T02:26:18;3.90;99.90
21199;DHT22;10757;51.038;3.712;2023-01-23T02:28:47;4.10;99.90
21199;DHT22;10757;51.038;3.712;2023-01-23T02:31:14;4.30;99.90
21199;DHT22;10757;51.038;3.712;2023-01-23T02:33:47;4.50;99.90
21199;DHT22;10757;51.038;3.712;2023-01-23T02:36:13;4.40;99.90
21199;DHT22;10757;51.038;3.712;2023-01-23T02:38:44;4.10;99.90
21199;DHT22;10757;51.038;3.712;2023-01-23T02:41:15;3.80;99.90
21199;DHT22;10757;51.038;3.712;2023-01-23T02:43:43;3.60;99.90
21199;DHT22;10757;51.038;3.712;2023-01-23T02:46:10;3.50;99.90
21199;DHT22;10757;51.038;3.712;2023-01-23T02:48:38;3.30;99.90
21199;DHT22;10757;51.038;3.712;2023-01-23T02:51:08;3.40;99.90
21199;DHT22;10757;51.038;3.712;2023-01-23T02:53:34;3.70;99.90
21199;DHT22;10757;51.038;3.712;2023-01-23T02:56:00;3.80;99.90
21199;DHT22;10757;51.038;3.712;2023-01-23T02:58:26;3.60;99.90
21199;DHT22;10757;51.038;3.712;2023-01-23T03:01:10;3.90;99.90
21199;DHT22;10757;51.038;3.712;2023-01-23T03:03:39;4.20;99.90
21199;DHT22;10757;51.038;3.712;2023-01-23T03:06:08;4.10;99.90
21199;DHT22;10757;51.038;3.712;2023-01-23T03:08:34;3.70;99.90
21199;DHT22;10757;51.038;3.712;2023-01-23T03:11:02;3.50;99.90
21199;DHT22;10757;51.038;3.712;2023-01-23T03:13:28;3.70;99.90
21199;DHT22;10757;51.038;3.712;2023-01-23T03:15:55;4.00;99.90
21199;DHT22;10757;51.038;3.712;2023-01-23T03:18:22;3.80;99.90
21199;DHT22;10757;51.038;3.712;2023-01-23T03:20:48;3.70;99.90
21199;DHT22;10757;51.038;3.712;2023-01-23T03:23:14;3.50;99.90
21199;DHT22;10757;51.038;3.712;2023-01-23T03:25:45;3.60;99.90
21199;DHT22;10757;51.038;3.712;2023-01-23T03:28:11;3.70;99.90
21199;DHT22;10757;51.038;3.712;2023-01-23T03:30:57;3.60;99.90
21199;DHT22;10757;51.038;3.712;2023-01-23T03:33:22;3.50;99.90
21199;DHT22;10757;51.038;3.712;2023-01-23T03:35:49;3.40;99.90
21199;DHT22;10757;51.038;3.712;2023-01-23T03:38:15;3.40;99.90
21199;DHT22;10757;51.038;3.712;2023-01-23T03:40:48;3.50;99.90
21199;DHT22;10757;51.038;3.712;2023-01-23T03:43:32;3.50;99.90
21199;DHT22;10757;51.038;3.712;2023-01-23T03:46:01;3.40;99.90
21199;DHT22;10757;51.038;3.712;2023-01-23T03:48:27;3.50;99.90
21199;DHT22;10757;51.038;3.712;2023-01-23T03:50:53;3.80;99.90
21199;DHT22;10757;51.038;3.712;2023-01-23T03:53:20;4.30;99.90
21199;DHT22;10757;51.038;3.712;2023-01-23T03:55:46;4.30;99.90
21199;DHT22;10757;51.038;3.712;2023-01-23T03:58:12;3.90;99.90
21199;DHT22;10757;51.038;3.712;2023-01-23T04:00:37;4.00;99.90
21199;DHT22;10757;51.038;3.712;2023-01-23T04:03:03;4.00;99.90
21199;DHT22;10757;51.038;3.712;2023-01-23T04:05:29;4.00;99.90
21199;DHT22;10757;51.038;3.712;2023-01-23T04:07:55;4.20;99.90
21199;DHT22;10757;51.038;3.712;2023-01-23T04:10:23;4.10;99.90
21199;DHT22;10757;51.038;3.712;2023-01-23T04:12:49;3.80;99.90
21199;DHT22;10757;51.038;3.712;2023-01-23T04:15:14;3.80;99.90
21199;DHT22;10757;51.038;3.712;2023-01-23T04:17:40;4.10;99.90
21199;DHT22;10757;51.038;3.712;2023-01-23T04:20:07;4.30;99.90
21199;DHT22;10757;51.038;3.712;2023-01-23T04:22:32;4.10;99.90
21199;DHT22;10757;51.038;3.712;2023-01-23T04:24:58;3.90;99.90
21199;DHT22;10757;51.038;3.712;2023-01-23T04:27:24;3.70;99.90
21199;DHT22;10757;51.038;3.712;2023-01-23T04:29:54;3.60;99.90
21199;DHT22;10757;51.038;3.712;2023-01-23T04:32:19;3.50;99.90
21199;DHT22;10757;51.038;3.712;2023-01-23T04:34:45;3.40;99.90
21199;DHT22;10757;51.038;3.712;2023-01-23T04:37:11;3.40;99.90
21199;DHT22;10757;51.038;3.712;2023-01-23T04:39:37;3.40;99.90
21199;DHT22;10757;51.038;3.712;2023-01-23T04:42:02;3.60;99.90
21199;DHT22;10757;51.038;3.712;2023-01-23T04:44:29;3.60;99.90
21199;DHT22;10757;51.038;3.712;2023-01-23T04:46:55;3.60;99.90
21199;DHT22;10757;51.038;3.712;2023-01-23T04:49:22;3.60;99.90
21199;DHT22;10757;51.038;3.712;2023-01-23T04:51:48;3.40;99.90
21199;DHT22;10757;51.038;3.712;2023-01-23T04:54:18;3.50;99.90
21199;DHT22;10757;51.038;3.712;2023-01-23T04:56:44;3.40;99.90
21199;DHT22;10757;51.038;3.712;2023-01-23T04:59:11;3.30;99.90
21199;DHT22;10757;51.038;3.712;2023-01-23T05:01:37;3.40;99.90
21199;DHT22;10757;51.038;3.712;2023-01-23T05:04:03;3.50;99.90
21199;DHT22;10757;51.038;3.712;2023-01-23T05:06:30;3.90;99.90
21199;DHT22;10757;51.038;3.712;2023-01-23T05:08:56;4.30;99.90
21199;DHT22;10757;51.038;3.712;2023-01-23T05:11:22;4.60;99.90
21199;DHT22;10757;51.038;3.712;2023-01-23T05:13:47;4.60;99.90
21199;DHT22;10757;51.038;3.712;2023-01-23T05:16:13;4.40;99.90
21199;DHT22;10757;51.038;3.712;2023-01-23T05:18:39;4.30;99.90
21199;DHT22;10757;51.038;3.712;2023-01-23T05:21:05;4.30;99.90
21199;DHT22;10757;51.038;3.712;2023-01-23T05:23:31;3.90;99.90
21199;DHT22;10757;51.038;3.712;2023-01-23T05:25:57;3.80;99.90
21199;DHT22;10757;51.038;3.712;2023-01-23T05:28:23;3.90;99.90
21199;DHT22;10757;51.038;3.712;2023-01-23T05:30:49;4.20;99.90
21199;DHT22;10757;51.038;3.712;2023-01-23T05:33:15;4.30;99.90
21199;DHT22;10757;51.038;3.712;2023-01-23T05:35:41;4.00;99.90
21199;DHT22;10757;51.038;3.712;2023-01-23T05:38:08;3.90;99.90
21199;DHT22;10757;51.038;3.712;2023-01-23T05:40:33;3.90;99.90
21199;DHT22;10757;51.038;3.712;2023-01-23T05:42:59;3.90;99.90
21199;DHT22;10757;51.038;3.712;2023-01-23T05:45:25;3.80;99.90
21199;DHT22;10757;51.038;3.712;2023-01-23T05:47:51;3.60;99.90
21199;DHT22;10757;51.038;3.712;2023-01-23T05:50:18;3.60;99.90
21199;DHT22;10757;51.038;3.712;2023-01-23T05:52:45;3.70;99.90
21199;DHT22;10757;51.038;3.712;2023-01-23T05:55:14;3.70;99.90
21199;DHT22;10757;51.038;3.712;2023-01-23T05:57:40;3.60;99.90
21199;DHT22;10757;51.038;3.712;2023-01-23T06:00:09;3.70;99.90
21199;DHT22;10757;51.038;3.712;2023-01-23T06:02:36;3.60;99.90
21199;DHT22;10757;51.038;3.712;2023-01-23T06:05:02;3.80;99.90
21199;DHT22;10757;51.038;3.712;2023-01-23T06:07:27;3.80;99.90
21199;DHT22;10757;51.038;3.712;2023-01-23T06:09:53;3.70;99.90
21199;DHT22;10757;51.038;3.712;2023-01-23T06:12:19;3.70;99.90
21199;DHT22;10757;51.038;3.712;2023-01-23T06:14:46;4.00;99.90
21199;DHT22;10757;51.038;3.712;2023-01-23T06:17:12;4.30;99.90
21199;DHT22;10757;51.038;3.712;2023-01-23T06:19:39;4.50;99.90
21199;DHT22;10757;51.038;3.712;2023-01-23T06:22:04;4.40;99.90
21199;DHT22;10757;51.038;3.712;2023-01-23T06:24:30;4.10;99.90
21199;DHT22;10757;51.038;3.712;2023-01-23T06:26:56;4.00;99.90
21199;DHT22;10757;51.038;3.712;2023-01-23T06:29:22;4.30;99.90
21199;DHT22;10757;51.038;3.712;2023-01-23T06:31:47;4.30;99.90
21199;DHT22;10757;51.038;3.712;2023-01-23T06:34:14;4.10;99.90
21199;DHT22;10757;51.038;3.712;2023-01-23T06:36:40;3.90;99.90
21199;DHT22;10757;51.038;3.712;2023-01-23T06:39:07;3.80;99.90
21199;DHT22;10757;51.038;3.712;2023-01-23T06:41:33;4.00;99.90
21199;DHT22;10757;51.038;3.712;2023-01-23T06:43:59;3.90;99.90
21199;DHT22;10757;51.038;3.712;2023-01-23T06:46:24;4.00;99.90
21199;DHT22;10757;51.038;3.712;2023-01-23T06:48:53;3.90;99.90
21199;DHT22;10757;51.038;3.712;2023-01-23T06:51:19;3.90;99.90
21199;DHT22;10757;51.038;3.712;2023-01-23T06:53:44;3.80;99.90
21199;DHT22;10757;51.038;3.712;2023-01-23T06:56:11;3.90;99.90
21199;DHT22;10757;51.038;3.712;2023-01-23T06:58:37;4.00;99.90
21199;DHT22;10757;51.038;3.712;2023-01-23T07:01:11;4.20;99.90
21199;DHT22;10757;51.038;3.712;2023-01-23T07:03:37;4.20;99.90
21199;DHT22;10757;51.038;3.712;2023-01-23T07:06:03;4.20;99.90
21199;DHT22;10757;51.038;3.712;2023-01-23T07:08:32;4.20;99.90
21199;DHT22;10757;51.038;3.712;2023-01-23T07:10:59;4.30;99.90
21199;DHT22;10757;51.038;3.712;2023-01-23T07:13:25;4.10;99.90
21199;DHT22;10757;51.038;3.712;2023-01-23T07:15:51;4.10;99.90
21199;DHT22;10757;51.038;3.712;2023-01-23T07:18:17;4.10;99.90
21199;DHT22;10757;51.038;3.712;2023-01-23T07:20:47;4.10;99.90
21199;DHT22;10757;51.038;3.712;2023-01-23T07:23:14;4.10;99.90
21199;DHT22;10757;51.038;3.712;2023-01-23T07:25:40;4.00;99.90
21199;DHT22;10757;51.038;3.712;2023-01-23T07:28:06;4.10;99.90
21199;DHT22;10757;51.038;3.712;2023-01-23T07:30:34;4.20;99.90
21199;DHT22;10757;51.038;3.712;2023-01-23T07:33:00;4.10;99.90
21199;DHT22;10757;51.038;3.712;2023-01-23T07:35:26;4.10;99.90
21199;DHT22;10757;51.038;3.712;2023-01-23T07:37:53;4.00;99.90
21199;DHT22;10757;51.038;3.712;2023-01-23T07:40:19;4.00;99.90
21199;DHT22;10757;51.038;3.712;2023-01-23T07:42:44;4.20;99.90
21199;DHT22;10757;51.038;3.712;2023-01-23T07:45:12;4.60;99.90
21199;DHT22;10757;51.038;3.712;2023-01-23T07:47:38;4.70;99.90
21199;DHT22;10757;51.038;3.712;2023-01-23T07:50:11;4.40;99.90
21199;DHT22;10757;51.038;3.712;2023-01-23T07:52:37;4.20;99.90
21199;DHT22;10757;51.038;3.712;2023-01-23T07:55:04;4.00;99.90
21199;DHT22;10757;51.038;3.712;2023-01-23T07:57:29;4.10;99.90
21199;DHT22;10757;51.038;3.712;2023-01-23T07:59:56;4.20;99.90
21199;DHT22;10757;51.038;3.712;2023-01-23T08:02:22;4.30;99.90
21199;DHT22;10757;51.038;3.712;2023-01-23T08:04:49;4.20;99.90
21199;DHT22;10757;51.038;3.712;2023-01-23T08:07:15;4.20;99.90
21199;DHT22;10757;51.038;3.712;2023-01-23T08:09:42;4.20;99.90
21199;DHT22;10757;51.038;3.712;2023-01-23T08:12:08;4.20;99.90
21199;DHT22;10757;51.038;3.712;2023-01-23T08:14:34;4.20;99.90
21199;DHT22;10757;51.038;3.712;2023-01-23T08:16:59;4.10;99.90
21199;DHT22;10757;51.038;3.712;2023-01-23T08:19:26;4.10;99.90
21199;DHT22;10757;51.038;3.712;2023-01-23T08:21:52;4.20;99.90
21199;DHT22;10757;51.038;3.712;2023-01-23T08:24:18;4.30;99.90
21199;DHT22;10757;51.038;3.712;2023-01-23T08:26:44;4.50;99.90
21199;DHT22;10757;51.038;3.712;2023-01-23T08:29:10;4.60;99.90
21199;DHT22;10757;51.038;3.712;2023-01-23T08:31:37;4.50;99.90
21199;DHT22;10757;51.038;3.712;2023-01-23T08:34:03;4.40;99.90
21199;DHT22;10757;51.038;3.712;2023-01-23T08:36:28;4.30;99.90
21199;DHT22;10757;51.038;3.712;2023-01-23T08:38:54;4.40;99.90
21199;DHT22;10757;51.038;3.712;2023-01-23T08:41:20;4.50;99.90
21199;DHT22;10757;51.038;3.712;2023-01-23T08:43:48;4.40;99.90
21199;DHT22;10757;51.038;3.712;2023-01-23T08:46:13;4.50;99.90
21199;DHT22;10757;51.038;3.712;2023-01-23T08:48:40;4.40;99.90
21199;DHT22;10757;51.038;3.712;2023-01-23T08:51:11;4.40;99.90
21199;DHT22;10757;51.038;3.712;2023-01-23T08:53:39;4.40;99.90
21199;DHT22;10757;51.038;3.712;2023-01-23T08:56:07;4.40;99.90
21199;DHT22;10757;51.038;3.712;2023-01-23T08:58:35;4.50;99.90
21199;DHT22;10757;51.038;3.712;2023-01-23T09:01:01;4.50;99.90
21199;DHT22;10757;51.038;3.712;2023-01-23T09:03:27;4.60;99.90
21199;DHT22;10757;51.038;3.712;2023-01-23T09:05:53;4.60;99.90
21199;DHT22;10757;51.038;3.712;2023-01-23T09:08:19;4.70;99.90
21199;DHT22;10757;51.038;3.712;2023-01-23T09:10:45;4.60;99.90
21199;DHT22;10757;51.038;3.712;2023-01-23T09:13:11;4.70;99.90
21199;DHT22;10757;51.038;3.712;2023-01-23T09:15:38;4.60;99.90
21199;DHT22;10757;51.038;3.712;2023-01-23T09:18:04;4.60;99.90
21199;DHT22;10757;51.038;3.712;2023-01-23T09:20:30;4.50;99.90
21199;DHT22;10757;51.038;3.712;2023-01-23T09:22:56;4.50;99.90
21199;DHT22;10757;51.038;3.712;2023-01-23T09:25:21;4.70;99.90
21199;DHT22;10757;51.038;3.712;2023-01-23T09:27:47;4.70;99.90
21199;DHT22;10757;51.038;3.712;2023-01-23T09:30:13;4.80;99.90
21199;DHT22;10757;51.038;3.712;2023-01-23T09:32:39;5.00;99.90
21199;DHT22;10757;51.038;3.712;2023-01-23T09:35:05;4.90;99.90
21199;DHT22;10757;51.038;3.712;2023-01-23T09:37:32;5.00;99.90
21199;DHT22;10757;51.038;3.712;2023-01-23T09:40:21;4.90;99.90
21199;DHT22;10757;51.038;3.712;2023-01-23T09:42:48;4.80;99.90
21199;DHT22;10757;51.038;3.712;2023-01-23T09:45:19;4.90;99.90
21199;DHT22;10757;51.038;3.712;2023-01-23T09:50:32;4.80;99.90
21199;DHT22;10757;51.038;3.712;2023-01-23T09:53:16;4.90;99.90
21199;DHT22;10757;51.038;3.712;2023-01-23T09:56:25;4.90;99.90
21199;DHT22;10757;51.038;3.712;2023-01-23T09:58:59;4.90;99.90
21199;DHT22;10757;51.038;3.712;2023-01-23T10:01:41;5.00;99.90
21199;DHT22;10757;51.038;3.712;2023-01-23T10:04:15;5.00;99.90
21199;DHT22;10757;51.038;3.712;2023-01-23T10:15:18;5.20;99.90
21199;DHT22;10757;51.038;3.712;2023-01-23T10:17:47;5.10;99.90
21199;DHT22;10757;51.038;3.712;2023-01-23T10:25:55;5.20;99.90
21199;DHT22;10757;51.038;3.712;2023-01-23T10:31:07;5.20;99.90
21199;DHT22;10757;51.038;3.712;2023-01-23T10:33:52;5.30;99.90
21199;DHT22;10757;51.038;3.712;2023-01-23T10:36:31;5.40;99.90
21199;DHT22;10757;51.038;3.712;2023-01-23T10:39:13;5.20;99.90
21199;DHT22;10757;51.038;3.712;2023-01-23T10:41:40;5.30;99.90
21199;DHT22;10757;51.038;3.712;2023-01-23T10:44:17;5.30;99.90
21199;DHT22;10757;51.038;3.712;2023-01-23T10:46:48;5.30;99.90
21199;DHT22;10757;51.038;3.712;2023-01-23T10:49:35;5.20;99.90
21199;DHT22;10757;51.038;3.712;2023-01-23T10:52:04;5.10;99.90
21199;DHT22;10757;51.038;3.712;2023-01-23T10:54:50;5.20;99.90
21199;DHT22;10757;51.038;3.712;2023-01-23T10:57:18;5.30;99.90
21199;DHT22;10757;51.038;3.712;2023-01-23T11:00:04;5.30;99.90
21199;DHT22;10757;51.038;3.712;2023-01-23T11:02:34;5.40;99.90
21199;DHT22;10757;51.038;3.712;2023-01-23T11:07:53;5.40;99.90
21199;DHT22;10757;51.038;3.712;2023-01-23T11:10:25;5.40;99.90
21199;DHT22;10757;51.038;3.712;2023-01-23T11:12:53;5.50;99.90
21199;DHT22;10757;51.038;3.712;2023-01-23T11:15:27;5.70;99.90
21199;DHT22;10757;51.038;3.712;2023-01-23T11:17:56;5.70;99.90
21199;DHT22;10757;51.038;3.712;2023-01-23T11:20:39;5.80;99.90
21199;DHT22;10757;51.038;3.712;2023-01-23T11:25:47;6.00;99.90
21199;DHT22;10757;51.038;3.712;2023-01-23T11:28:36;6.00;99.90
21199;DHT22;10757;51.038;3.712;2023-01-23T11:31:14;5.80;99.90
21199;DHT22;10757;51.038;3.712;2023-01-23T11:39:36;6.00;99.90
21199;DHT22;10757;51.038;3.712;2023-01-23T11:42:14;6.10;99.90
21199;DHT22;10757;51.038;3.712;2023-01-23T11:44:46;6.10;99.90
21199;DHT22;10757;51.038;3.712;2023-01-23T11:50:07;6.00;99.90
21199;DHT22;10757;51.038;3.712;2023-01-23T11:52:57;6.00;99.90
21199;DHT22;10757;51.038;3.712;2023-01-23T12:09:22;6.20;99.90
21199;DHT22;10757;51.038;3.712;2023-01-23T12:12:06;6.20;99.90
21199;DHT22;10757;51.038;3.712;2023-01-23T12:22:54;6.10;99.90
21199;DHT22;10757;51.038;3.712;2023-01-23T12:25:35;6.30;99.90
21199;DHT22;10757;51.038;3.712;2023-01-23T12:33:42;6.30;99.90
21199;DHT22;10757;51.038;3.712;2023-01-23T12:40:02;6.40;99.90
21199;DHT22;10757;51.038;3.712;2023-01-23T12:42:11;6.20;99.90
21199;DHT22;10757;51.038;3.712;2023-01-23T12:47:30;6.10;99.90
21199;DHT22;10757;51.038;3.712;2023-01-23T12:50:03;6.10;99.90
21199;DHT22;10757;51.038;3.712;2023-01-23T12:55:21;5.90;99.90
21199;DHT22;10757;51.038;3.712;2023-01-23T12:57:51;5.90;99.90
21199;DHT22;10757;51.038;3.712;2023-01-23T13:06:12;6.20;99.90
21199;DHT22;10757;51.038;3.712;2023-01-23T13:14:43;6.30;99.90
21199;DHT22;10757;51.038;3.712;2023-01-23T13:17:37;6.30;99.90
21199;DHT22;10757;51.038;3.712;2023-01-23T13:23:27;6.30;99.90
21199;DHT22;10757;51.038;3.712;2023-01-23T13:28:53;6.30;99.90
21199;DHT22;10757;51.038;3.712;2023-01-23T13:31:44;6.10;99.90
21199;DHT22;10757;51.038;3.712;2023-01-23T13:36:50;6.10;99.90
21199;DHT22;10757;51.038;3.712;2023-01-23T13:48:33;6.30;99.90
21199;DHT22;10757;51.038;3.712;2023-01-23T13:51:19;6.20;99.90
21199;DHT22;10757;51.038;3.712;2023-01-23T13:53:50;6.30;99.90
21199;DHT22;10757;51.038;3.712;2023-01-23T13:56:37;6.30;99.90
21199;DHT22;10757;51.038;3.712;2023-01-23T13:59:08;6.20;99.90
21199;DHT22;10757;51.038;3.712;2023-01-23T14:01:43;6.20;99.90
21199;DHT22;10757;51.038;3.712;2023-01-23T14:04:34;6.30;99.90
21199;DHT22;10757;51.038;3.712;2023-01-23T14:07:31;6.30;99.90
21199;DHT22;10757;51.038;3.712;2023-01-23T14:10:24;6.20;99.90
21199;DHT22;10757;51.038;3.712;2023-01-23T14:13:00;6.10;99.90
21199;DHT22;10757;51.038;3.712;2023-01-23T14:15:31;5.90;99.90
21199;DHT22;10757;51.038;3.712;2023-01-23T14:18:45;5.90;99.90
21199;DHT22;10757;51.038;3.712;2023-01-23T14:21:23;6.10;99.90
21199;DHT22;10757;51.038;3.712;2023-01-23T14:23:53;6.20;99.90
21199;DHT22;10757;51.038;3.712;2023-01-23T14:26:24;6.10;99.90
21199;DHT22;10757;51.038;3.712;2023-01-23T14:29:01;5.90;99.90
21199;DHT22;10757;51.038;3.712;2023-01-23T14:31:35;5.90;99.90
21199;DHT22;10757;51.038;3.712;2023-01-23T14:34:15;5.90;99.90
21199;DHT22;10757;51.038;3.712;2023-01-23T14:37:05;5.90;99.90
21199;DHT22;10757;51.038;3.712;2023-01-23T14:39:35;5.90;99.90
21199;DHT22;10757;51.038;3.712;2023-01-23T14:42:06;5.90;99.90
21199;DHT22;10757;51.038;3.712;2023-01-23T14:45:10;6.00;99.90
21199;DHT22;10757;51.038;3.712;2023-01-23T14:47:48;6.00;99.90
21199;DHT22;10757;51.038;3.712;2023-01-23T14:50:24;6.00;99.90
21199;DHT22;10757;51.038;3.712;2023-01-23T14:53:05;5.90;99.90
21199;DHT22;10757;51.038;3.712;2023-01-23T14:55:35;5.90;99.90
21199;DHT22;10757;51.038;3.712;2023-01-23T14:58:04;6.00;99.90
21199;DHT22;10757;51.038;3.712;2023-01-23T15:00:33;6.00;99.90
21199;DHT22;10757;51.038;3.712;2023-01-23T15:03:00;6.10;99.90
21199;DHT22;10757;51.038;3.712;2023-01-23T15:05:30;6.00;99.90
21199;DHT22;10757;51.038;3.712;2023-01-23T15:08:03;5.90;99.90
21199;DHT22;10757;51.038;3.712;2023-01-23T15:10:50;5.90;99.90
21199;DHT22;10757;51.038;3.712;2023-01-23T15:13:49;5.80;99.90
21199;DHT22;10757;51.038;3.712;2023-01-23T15:16:26;5.90;99.90
21199;DHT22;10757;51.038;3.712;2023-01-23T15:18:57;5.70;99.90
21199;DHT22;10757;51.038;3.712;2023-01-23T15:26:59;5.80;99.90
21199;DHT22;10757;51.038;3.712;2023-01-23T15:29:28;5.60;99.90
21199;DHT22;10757;51.038;3.712;2023-01-23T15:31:55;5.60;99.90
21199;DHT22;10757;51.038;3.712;2023-01-23T15:34:28;5.70;99.90
21199;DHT22;10757;51.038;3.712;2023-01-23T15:42:23;5.70;99.90
21199;DHT22;10757;51.038;3.712;2023-01-23T15:44:51;5.60;99.90
21199;DHT22;10757;51.038;3.712;2023-01-23T15:47:16;5.80;99.90
21199;DHT22;10757;51.038;3.712;2023-01-23T15:49:43;5.70;99.90
21199;DHT22;10757;51.038;3.712;2023-01-23T15:52:21;5.70;99.90
21199;DHT22;10757;51.038;3.712;2023-01-23T15:54:52;5.70;99.90
21199;DHT22;10757;51.038;3.712;2023-01-23T15:57:19;5.70;99.90
21199;DHT22;10757;51.038;3.712;2023-01-23T15:59:45;5.60;99.90
21199;DHT22;10757;51.038;3.712;2023-01-23T16:02:20;5.60;99.90
21199;DHT22;10757;51.038;3.712;2023-01-23T16:04:46;5.60;99.90
21199;DHT22;10757;51.038;3.712;2023-01-23T16:07:44;5.50;99.90
21199;DHT22;10757;51.038;3.712;2023-01-23T16:10:15;5.50;99.90
21199;DHT22;10757;51.038;3.712;2023-01-23T16:12:43;5.60;99.90
21199;DHT22;10757;51.038;3.712;2023-01-23T16:15:49;5.70;99.90
21199;DHT22;10757;51.038;3.712;2023-01-23T16:18:08;5.60;99.90
21199;DHT22;10757;51.038;3.712;2023-01-23T16:20:40;5.70;99.90
21199;DHT22;10757;51.038;3.712;2023-01-23T16:23:15;5.80;99.90
21199;DHT22;10757;51.038;3.712;2023-01-23T16:25:42;5.80;99.90
21199;DHT22;10757;51.038;3.712;2023-01-23T16:28:17;5.80;99.90
21199;DHT22;10757;51.038;3.712;2023-01-23T16:30:43;5.70;99.90
21199;DHT22;10757;51.038;3.712;2023-01-23T16:33:10;5.70;99.90
21199;DHT22;10757;51.038;3.712;2023-01-23T16:35:36;5.80;99.90
21199;DHT22;10757;51.038;3.712;2023-01-23T16:38:02;5.80;99.90
21199;DHT22;10757;51.038;3.712;2023-01-23T16:40:29;5.70;99.90
21199;DHT22;10757;51.038;3.712;2023-01-23T16:42:58;5.70;99.90
21199;DHT22;10757;51.038;3.712;2023-01-23T16:45:29;5.70;99.90
21199;DHT22;10757;51.038;3.712;2023-01-23T16:47:55;5.70;99.90
21199;DHT22;10757;51.038;3.712;2023-01-23T16:50:39;5.70;99.90
21199;DHT22;10757;51.038;3.712;2023-01-23T16:53:33;5.60;99.90
21199;DHT22;10757;51.038;3.712;2023-01-23T16:56:00;5.60;99.90
21199;DHT22;10757;51.038;3.712;2023-01-23T16:58:37;5.50;99.90
21199;DHT22;10757;51.038;3.712;2023-01-23T17:01:13;5.70;99.90
21199;DHT22;10757;51.038;3.712;2023-01-23T17:03:40;5.70;99.90
21199;DHT22;10757;51.038;3.712;2023-01-23T17:06:10;5.80;99.90
21199;DHT22;10757;51.038;3.712;2023-01-23T17:08:37;5.70;99.90
21199;DHT22;10757;51.038;3.712;2023-01-23T17:11:03;5.70;99.90
21199;DHT22;10757;51.038;3.712;2023-01-23T17:13:31;5.60;99.90
21199;DHT22;10757;51.038;3.712;2023-01-23T17:15:59;5.70;99.90
21199;DHT22;10757;51.038;3.712;2023-01-23T17:18:32;5.70;99.90
21199;DHT22;10757;51.038;3.712;2023-01-23T17:20:59;5.70;99.90
21199;DHT22;10757;51.038;3.712;2023-01-23T17:23:25;5.60;99.90
21199;DHT22;10757;51.038;3.712;2023-01-23T17:25:52;5.60;99.90
21199;DHT22;10757;51.038;3.712;2023-01-23T17:28:19;5.50;99.90
21199;DHT22;10757;51.038;3.712;2023-01-23T17:30:50;5.60;99.90
21199;DHT22;10757;51.038;3.712;2023-01-23T17:33:28;5.60;99.90
21199;DHT22;10757;51.038;3.712;2023-01-23T17:35:56;5.70;99.90
21199;DHT22;10757;51.038;3.712;2023-01-23T17:38:23;5.70;99.90
21199;DHT22;10757;51.038;3.712;2023-01-23T17:40:52;5.60;99.90
21199;DHT22;10757;51.038;3.712;2023-01-23T17:43:21;5.60;99.90
21199;DHT22;10757;51.038;3.712;2023-01-23T17:45:49;5.70;99.90
21199;DHT22;10757;51.038;3.712;2023-01-23T17:48:26;5.70;99.90
21199;DHT22;10757;51.038;3.712;2023-01-23T17:50:52;5.70;99.90
21199;DHT22;10757;51.038;3.712;2023-01-23T17:53:20;5.60;99.90
21199;DHT22;10757;51.038;3.712;2023-01-23T17:55:46;5.70;99.90
21199;DHT22;10757;51.038;3.712;2023-01-23T17:58:16;5.80;99.90
21199;DHT22;10757;51.038;3.712;2023-01-23T18:00:46;5.80;99.90
21199;DHT22;10757;51.038;3.712;2023-01-23T18:03:21;5.70;99.90
21199;DHT22;10757;51.038;3.712;2023-01-23T18:05:54;5.60;99.90